createdAt,value
2023-05-17T00:01:32.351Z,1025.943
2023-05-17T00:06:29.034Z,1025.949
2023-05-17T00:11:28.228Z,1025.893
2023-05-17T00:16:31.169Z,1025.967
2023-05-17T00:21:28.358Z,1026.061
2023-05-17T00:26:36.881Z,1026.045
2023-05-17T00:31:28.052Z,1026.005
2023-05-17T00:36:28.008Z,1025.977
2023-05-17T00:41:28.066Z,1025.889
2023-05-17T00:46:29.217Z,1025.766
2023-05-17T00:51:29.434Z,1025.758
2023-05-17T00:56:37.631Z,1025.684
2023-05-17T01:01:28.783Z,1025.739
2023-05-17T01:06:28.165Z,1025.785
2023-05-17T01:11:33.465Z,1025.727
2023-05-17T01:16:31.824Z,1025.765
2023-05-17T01:21:33.862Z,1025.865
2023-05-17T01:26:48.244Z,1025.844
2023-05-17T01:31:31.524Z,1025.855
2023-05-17T01:36:28.231Z,1025.866
2023-05-17T01:41:33.479Z,1025.87
2023-05-17T01:46:30.542Z,1025.881
2023-05-17T01:51:32.649Z,1025.953
2023-05-17T01:56:31.309Z,1026.021
2023-05-17T02:01:33.182Z,1026.072
2023-05-17T02:06:31.426Z,1026.08
2023-05-17T02:11:28.444Z,1026.078
2023-05-17T02:16:28.162Z,1026.155
2023-05-17T02:21:28.046Z,1026.245
2023-05-17T02:26:28.272Z,1026.284
2023-05-17T02:31:28.621Z,1026.334
2023-05-17T02:36:30.679Z,1026.4
2023-05-17T02:41:28.048Z,1026.419
2023-05-17T02:46:28.141Z,1026.422
2023-05-17T02:51:31.177Z,1026.425
2023-05-17T02:56:28.056Z,1026.421
2023-05-17T03:01:28.374Z,1026.446
2023-05-17T03:06:28.384Z,1026.432
2023-05-17T03:11:28.041Z,1026.426
2023-05-17T03:16:28.171Z,1026.46
2023-05-17T03:21:28.392Z,1026.454
2023-05-17T03:26:28.473Z,1026.528
2023-05-17T03:31:28.078Z,1026.532
2023-05-17T03:36:28.344Z,1026.574
2023-05-17T03:41:28.052Z,1026.646
2023-05-17T03:46:28.108Z,1026.654
2023-05-17T03:51:28.587Z,1026.678
2023-05-17T03:56:27.978Z,1026.796
2023-05-17T04:01:29.453Z,1026.846
2023-05-17T04:06:28.034Z,1026.852
2023-05-17T04:11:28.222Z,1026.905
2023-05-17T04:16:29.402Z,1026.978
2023-05-17T04:21:27.989Z,1027.041
2023-05-17T04:26:28.100Z,1027.125
2023-05-17T04:31:28.209Z,1027.216
2023-05-17T04:36:28.457Z,1027.296
2023-05-17T04:41:28.228Z,1027.371
2023-05-17T04:46:31.178Z,1027.403
2023-05-17T04:51:28.295Z,1027.455
2023-05-17T04:56:28.014Z,1027.559
2023-05-17T05:01:29.380Z,1027.615
2023-05-17T05:06:28.259Z,1027.652
2023-05-17T05:11:28.244Z,1027.734
2023-05-17T05:16:28.116Z,1027.839
2023-05-17T05:21:27.921Z,1027.889
2023-05-17T05:26:28.257Z,1028.007
2023-05-17T05:31:28.249Z,1028.066
2023-05-17T05:36:28.004Z,1028.044
2023-05-17T05:41:28.002Z,1028.1
2023-05-17T05:46:28.022Z,1028.128
2023-05-17T05:51:31.546Z,1028.227
2023-05-17T05:56:28.537Z,1028.225
2023-05-17T06:01:28.976Z,1028.363
2023-05-17T06:06:28.104Z,1028.384
2023-05-17T06:11:29.493Z,1028.409
2023-05-17T06:16:27.798Z,1028.426
2023-05-17T06:21:28.249Z,1028.417
2023-05-17T06:26:28.143Z,1028.482
2023-05-17T06:31:27.896Z,1028.479
2023-05-17T06:36:28.034Z,1028.548
2023-05-17T06:41:30.572Z,1028.547
2023-05-17T06:46:28.484Z,1028.579
2023-05-17T06:51:31.268Z,1028.609
2023-05-17T06:56:31.577Z,1028.721
2023-05-17T07:01:28.061Z,1028.717
2023-05-17T07:06:28.399Z,1028.789
2023-05-17T07:11:28.434Z,1028.826
2023-05-17T07:16:28.147Z,1028.872
2023-05-17T07:21:28.741Z,1028.838
2023-05-17T07:26:27.956Z,1028.877
2023-05-17T07:31:28.139Z,1028.917
2023-05-17T07:36:30.557Z,1028.989
2023-05-17T07:41:27.971Z,1029.007
2023-05-17T07:46:28.089Z,1029.169
2023-05-17T07:51:28.082Z,1029.243
2023-05-17T07:56:28.369Z,1029.193
2023-05-17T08:01:30.810Z,1029.217
2023-05-17T08:06:28.145Z,1029.246
2023-05-17T08:11:32.398Z,1029.354
2023-05-17T08:16:28.085Z,1029.339
2023-05-17T08:21:28.230Z,1029.324
2023-05-17T08:26:28.367Z,1029.349
2023-05-17T08:31:28.004Z,1029.399
2023-05-17T08:36:28.541Z,1029.38
2023-05-17T08:41:28.295Z,1029.342
2023-05-17T08:46:31.488Z,1029.42
2023-05-17T08:51:28.555Z,1029.408
2023-05-17T08:56:30.194Z,1029.43
2023-05-17T09:01:32.987Z,1029.431
2023-05-17T09:06:28.208Z,1029.361
2023-05-17T09:11:33.389Z,1029.345
2023-05-17T09:16:28.491Z,1029.394
2023-05-17T09:21:31.733Z,1029.424
2023-05-17T09:26:34.787Z,1029.386
2023-05-17T09:31:33.347Z,1029.421
2023-05-17T09:36:27.955Z,1029.463
2023-05-17T09:41:30.301Z,1029.585
2023-05-17T09:46:29.869Z,1029.582
2023-05-17T09:51:37.591Z,1029.57
2023-05-17T09:56:32.598Z,1029.624
2023-05-17T10:01:29.268Z,1029.612
2023-05-17T10:06:44.691Z,1029.597
2023-05-17T10:11:34.259Z,1029.565
2023-05-17T10:16:29.283Z,1029.652
2023-05-17T10:21:28.526Z,1029.668
2023-05-17T10:26:28.832Z,1029.62
2023-05-17T10:31:31.866Z,1029.604
2023-05-17T10:36:28.824Z,1029.618
2023-05-17T10:41:33.052Z,1029.59
2023-05-17T10:46:30.900Z,1029.592
2023-05-17T10:51:32.376Z,1029.693
2023-05-17T10:56:28.915Z,1029.696
2023-05-17T11:01:40.645Z,1029.707
2023-05-17T11:06:30.567Z,1029.685
2023-05-17T11:11:27.884Z,1029.707
2023-05-17T11:16:33.881Z,1029.691
2023-05-17T11:21:32.379Z,1029.744
2023-05-17T11:26:33.020Z,1029.792
2023-05-17T11:31:37.512Z,1029.742
2023-05-17T11:36:27.993Z,1029.744
2023-05-17T11:41:33.068Z,1029.67
2023-05-17T11:46:31.022Z,1029.704
2023-05-17T11:51:28.323Z,1029.66
2023-05-17T11:56:42.297Z,1029.635
2023-05-17T12:01:30.768Z,1029.65
2023-05-17T12:06:28.850Z,1029.659
2023-05-17T12:11:29.707Z,1029.535
2023-05-17T12:16:29.293Z,1029.541
2023-05-17T12:21:28.022Z,1029.524
2023-05-17T12:26:28.224Z,1029.451
2023-05-17T12:31:29.094Z,1029.427
2023-05-17T12:36:29.590Z,1029.469
2023-05-17T12:41:28.774Z,1029.486
2023-05-17T12:46:28.171Z,1029.508
2023-05-17T12:51:27.917Z,1029.433
2023-05-17T12:56:28.979Z,1029.433
2023-05-17T13:01:27.975Z,1029.446
2023-05-17T13:06:27.931Z,1029.415
2023-05-17T13:11:29.017Z,1029.474
2023-05-17T13:16:36.210Z,1029.436
2023-05-17T13:21:28.271Z,1029.384
2023-05-17T13:26:29.723Z,1029.444
2023-05-17T13:31:30.922Z,1029.327
2023-05-17T13:36:28.264Z,1029.307
2023-05-17T13:41:28.054Z,1029.243
2023-05-17T13:46:28.034Z,1029.24
2023-05-17T13:51:27.906Z,1029.228
2023-05-17T13:56:28.106Z,1029.31
2023-05-17T14:01:27.855Z,1029.278
2023-05-17T14:06:29.599Z,1029.236
2023-05-17T14:11:27.973Z,1029.183
2023-05-17T14:16:28.407Z,1029.202
2023-05-17T14:21:28.285Z,1029.224
2023-05-17T14:26:27.947Z,1029.27
2023-05-17T14:31:28.238Z,1029.199
2023-05-17T14:36:28.090Z,1029.292
2023-05-17T14:41:27.995Z,1029.263
2023-05-17T14:46:27.928Z,1029.28
2023-05-17T14:51:27.949Z,1029.239
2023-05-17T14:56:30.548Z,1029.247
2023-05-17T15:01:28.102Z,1029.187
2023-05-17T15:06:28.002Z,1029.214
2023-05-17T15:11:27.977Z,1029.171
2023-05-17T15:16:28.066Z,1029.209
2023-05-17T15:21:29.790Z,1029.279
2023-05-17T15:26:27.975Z,1029.263
2023-05-17T15:31:31.222Z,1029.258
2023-05-17T15:36:29.357Z,1029.258
2023-05-17T15:41:30.029Z,1029.124
2023-05-17T15:46:28.056Z,1029.16
2023-05-17T15:51:27.910Z,1029.095
2023-05-17T15:56:28.723Z,1029.183
2023-05-17T16:01:27.797Z,1029.146
2023-05-17T16:06:27.940Z,1029.231
2023-05-17T16:11:27.985Z,1029.3
2023-05-17T16:16:27.857Z,1029.348
2023-05-17T16:21:27.822Z,1029.359
2023-05-17T16:26:27.880Z,1029.399
2023-05-17T16:31:28.998Z,1029.404
2023-05-17T16:36:27.784Z,1029.397
2023-05-17T16:41:28.715Z,1029.395
2023-05-17T16:46:27.959Z,1029.461
2023-05-17T16:51:30.541Z,1029.488
2023-05-17T16:56:27.863Z,1029.5
2023-05-17T17:01:28.003Z,1029.568
2023-05-17T17:06:28.138Z,1029.509
2023-05-17T17:11:27.841Z,1029.501
2023-05-17T17:16:29.407Z,1029.408
2023-05-17T17:21:27.983Z,1029.386
2023-05-17T17:26:27.837Z,1029.502
2023-05-17T17:31:27.837Z,1029.594
2023-05-17T17:36:27.939Z,1029.569
2023-05-17T17:41:28.007Z,1029.57
2023-05-17T17:46:29.869Z,1029.62
2023-05-17T17:51:28.006Z,1029.664
2023-05-17T17:56:28.190Z,1029.653
2023-05-17T18:01:28.008Z,1029.723
2023-05-17T18:06:30.909Z,1029.764
2023-05-17T18:11:27.774Z,1029.823
2023-05-17T18:16:27.897Z,1029.81
2023-05-17T18:21:30.828Z,1029.793
2023-05-17T18:26:27.882Z,1029.803
2023-05-17T18:31:28.447Z,1029.798
2023-05-17T18:36:27.773Z,1029.815
2023-05-17T18:41:28.352Z,1029.856
2023-05-17T18:46:27.912Z,1029.88
2023-05-17T18:51:28.860Z,1029.886
2023-05-17T18:56:30.350Z,1029.922
2023-05-17T19:01:29.447Z,1029.924
2023-05-17T19:06:28.223Z,1029.961
2023-05-17T19:11:28.583Z,1029.943
2023-05-17T19:16:28.092Z,1029.976
2023-05-17T19:21:27.862Z,1029.979
2023-05-17T19:26:27.802Z,1030.043
2023-05-17T19:31:33.312Z,1030.065
2023-05-17T19:36:27.854Z,1030.091
2023-05-17T19:41:27.788Z,1030.092
2023-05-17T19:46:27.952Z,1030.113
2023-05-17T19:51:27.786Z,1030.189
2023-05-17T19:56:28.037Z,1030.204
2023-05-17T20:01:27.819Z,1030.171
2023-05-17T20:06:27.969Z,1030.117
2023-05-17T20:11:27.933Z,1030.098
2023-05-17T20:16:30.848Z,1030.117
2023-05-17T20:21:28.179Z,1030.022
2023-05-17T20:26:32.041Z,1030.08
2023-05-17T20:31:27.919Z,1030.108
2023-05-17T20:36:29.129Z,1030.102
2023-05-17T20:41:30.913Z,1030.034
2023-05-17T20:46:29.900Z,1030.088
2023-05-17T20:51:27.933Z,1030.08
2023-05-17T20:56:28.386Z,1030.126
2023-05-17T21:01:27.876Z,1030.198
2023-05-17T21:06:35.445Z,1030.233
2023-05-17T21:11:28.908Z,1030.153
2023-05-17T21:16:30.417Z,1030.221
2023-05-17T21:21:27.651Z,1030.149
2023-05-17T21:31:28.197Z,1030.153
2023-05-17T21:36:27.966Z,1030.12
2023-05-17T21:41:30.137Z,1030.096
2023-05-17T21:46:28.098Z,1030.116
2023-05-17T21:51:28.077Z,1030.079
2023-05-17T21:56:27.863Z,1030.111
2023-05-17T22:01:28.018Z,1030.19
2023-05-17T22:06:29.368Z,1030.19
2023-05-17T22:11:28.844Z,1030.135
2023-05-17T22:16:27.973Z,1030.12
2023-05-17T22:21:32.684Z,1030.119
2023-05-17T22:26:27.995Z,1030.113
2023-05-17T22:31:27.998Z,1030.135
2023-05-17T22:36:28.294Z,1030.097
2023-05-17T22:41:28.175Z,1030.113
2023-05-17T22:46:27.858Z,1030.177
2023-05-17T22:51:30.042Z,1030.201
2023-05-17T22:56:27.868Z,1030.211
2023-05-17T23:01:27.951Z,1030.189
2023-05-17T23:06:34.164Z,1030.145
2023-05-17T23:11:28.358Z,1030.128
2023-05-17T23:16:28.618Z,1030.167
2023-05-17T23:21:35.729Z,1030.262
2023-05-17T23:26:29.065Z,1030.155
2023-05-17T23:31:29.895Z,1030.192
2023-05-17T23:36:28.102Z,1030.173
2023-05-17T23:41:29.378Z,1030.125
2023-05-17T23:46:29.387Z,1030.095
2023-05-17T23:51:28.237Z,1030.089
2023-05-17T23:56:27.731Z,1030.064
